createdAt,value
2022-10-18T00:00:09.441Z,8.32
2022-10-18T00:02:39.975Z,8.45
2022-10-18T00:05:09.576Z,8.70
2022-10-18T00:07:39.819Z,8.32
2022-10-18T00:10:10.170Z,8.30
2022-10-18T00:12:39.690Z,8.46
2022-10-18T00:15:09.968Z,8.01
2022-10-18T00:17:39.725Z,7.65
2022-10-18T00:20:09.331Z,7.71
2022-10-18T00:22:41.505Z,7.85
2022-10-18T00:25:11.167Z,7.83
2022-10-18T00:27:40.032Z,7.95
2022-10-18T00:30:09.746Z,7.85
2022-10-18T00:32:39.205Z,7.79
2022-10-18T00:35:09.521Z,7.75
2022-10-18T00:37:39.797Z,7.71
2022-10-18T00:40:09.874Z,7.93
2022-10-18T00:42:39.365Z,8.19
2022-10-18T00:45:21.888Z,8.09
2022-10-18T00:47:55.348Z,8.05
2022-10-18T00:50:24.780Z,8.19
2022-10-18T00:52:58.510Z,7.75
2022-10-18T00:55:28.904Z,7.30
2022-10-18T00:57:58.559Z,7.84
2022-10-18T01:00:27.420Z,8.06
2022-10-18T01:02:56.701Z,8.08
2022-10-18T01:05:26.853Z,7.92
2022-10-18T01:08:24.476Z,7.76
2022-10-18T01:11:01.739Z,7.67
2022-10-18T01:13:57.434Z,7.40
2022-10-18T01:16:32.460Z,7.44
2022-10-18T01:19:05.097Z,7.63
2022-10-18T01:21:44.242Z,7.63
2022-10-18T01:24:47.547Z,7.77
2022-10-18T01:27:33.639Z,7.72
2022-10-18T01:30:32.554Z,7.69
2022-10-18T01:33:06.485Z,7.69
2022-10-18T01:35:40.870Z,7.58
2022-10-18T01:38:17.190Z,7.49
2022-10-18T01:40:48.586Z,7.57
2022-10-18T01:43:19.664Z,7.49
2022-10-18T01:45:50.963Z,7.45
2022-10-18T01:48:20.857Z,7.55
2022-10-18T01:50:49.732Z,7.66
2022-10-18T01:53:31.116Z,7.58
2022-10-18T01:56:21.907Z,7.69
2022-10-18T01:59:14.876Z,7.64
2022-10-18T02:01:54.753Z,7.60
2022-10-18T02:04:33.710Z,7.02
2022-10-18T02:07:10.863Z,7.20
2022-10-18T02:09:46.229Z,7.04
2022-10-18T02:12:16.863Z,7.22
2022-10-18T02:14:47.208Z,7.22
2022-10-18T02:17:20.343Z,7.38
2022-10-18T02:19:52.659Z,7.49
2022-10-18T02:22:21.988Z,7.42
2022-10-18T02:24:54.298Z,7.58
2022-10-18T02:27:23.723Z,7.45
2022-10-18T02:29:53.771Z,7.28
2022-10-18T02:32:32.221Z,7.07
2022-10-18T02:35:05.957Z,6.53
2022-10-18T02:37:38.054Z,5.97
2022-10-18T02:40:09.962Z,5.65
2022-10-18T02:42:40.546Z,5.95
2022-10-18T02:45:09.787Z,5.97
2022-10-18T02:47:40.053Z,5.86
2022-10-18T02:50:09.766Z,5.83
2022-10-18T02:52:38.554Z,5.76
2022-10-18T02:55:08.801Z,6.06
2022-10-18T02:57:38.334Z,6.12
2022-10-18T03:00:08.077Z,6.14
2022-10-18T03:02:36.883Z,6.32
2022-10-18T03:05:07.497Z,6.43
2022-10-18T03:07:36.304Z,6.24
2022-10-18T03:10:05.605Z,6.29
2022-10-18T03:12:34.473Z,6.51
2022-10-18T03:15:03.829Z,6.01
2022-10-18T03:17:32.893Z,5.91
2022-10-18T03:20:02.077Z,5.95
2022-10-18T03:22:32.322Z,5.99
2022-10-18T03:25:01.207Z,5.90
2022-10-18T03:27:30.318Z,6.05
2022-10-18T03:30:01.016Z,6.22
2022-10-18T03:32:29.984Z,6.18
2022-10-18T03:34:58.964Z,6.36
2022-10-18T03:37:27.838Z,6.21
2022-10-18T03:39:58.275Z,5.90
2022-10-18T03:42:27.211Z,6.05
2022-10-18T03:44:56.004Z,6.23
2022-10-18T03:47:24.859Z,6.18
2022-10-18T03:49:56.352Z,6.31
2022-10-18T03:52:26.263Z,6.27
2022-10-18T03:54:55.098Z,6.06
2022-10-18T03:57:25.367Z,6.04
2022-10-18T03:59:54.238Z,6.09
2022-10-18T04:02:23.093Z,6.19
2022-10-18T04:04:52.378Z,6.18
2022-10-18T04:07:21.233Z,6.21
2022-10-18T04:09:50.114Z,6.26
2022-10-18T04:12:18.961Z,6.08
2022-10-18T04:14:49.229Z,5.87
2022-10-18T04:17:18.061Z,5.75
2022-10-18T04:19:46.921Z,5.81
2022-10-18T04:22:15.735Z,5.81
2022-10-18T04:24:44.609Z,5.86
2022-10-18T04:27:13.430Z,5.97
2022-10-18T04:29:42.275Z,6.02
2022-10-18T04:32:12.595Z,5.98
2022-10-18T04:34:44.534Z,6.08
2022-10-18T04:37:13.426Z,5.96
2022-10-18T04:39:49.811Z,5.85
2022-10-18T04:42:22.199Z,5.78
2022-10-18T04:44:51.208Z,5.85
2022-10-18T04:47:21.622Z,5.89
2022-10-18T04:49:50.504Z,5.80
2022-10-18T04:52:19.422Z,5.73
2022-10-18T04:54:48.230Z,5.60
2022-10-18T04:57:17.193Z,5.65
2022-10-18T04:59:46.000Z,5.47
2022-10-18T05:02:14.846Z,5.08
2022-10-18T05:04:45.096Z,5.52
2022-10-18T05:07:13.923Z,5.79
2022-10-18T05:09:42.746Z,6.25
2022-10-18T05:12:11.579Z,6.39
2022-10-18T05:14:40.367Z,6.57
2022-10-18T05:17:09.202Z,6.84
2022-10-18T05:19:38.024Z,6.76
2022-10-18T05:22:08.290Z,6.43
2022-10-18T05:24:37.105Z,6.60
2022-10-18T05:27:05.940Z,6.90
2022-10-18T05:29:34.785Z,7.30
2022-10-18T05:32:04.221Z,7.62
2022-10-18T05:34:33.178Z,7.77
2022-10-18T05:37:02.147Z,8.06
2022-10-18T05:39:32.454Z,8.16
2022-10-18T05:42:02.544Z,8.35
2022-10-18T05:44:31.401Z,8.57
2022-10-18T05:47:00.278Z,8.56
2022-10-18T05:49:29.751Z,8.86
2022-10-18T05:51:58.585Z,9.27
2022-10-18T05:54:27.519Z,9.30
2022-10-18T05:56:57.746Z,9.72
2022-10-18T05:59:27.188Z,10.09
2022-10-18T06:01:56.080Z,10.06
2022-10-18T06:04:24.904Z,9.90
2022-10-18T06:06:54.089Z,10.29
2022-10-18T06:09:23.074Z,10.28
2022-10-18T06:11:51.884Z,9.35
2022-10-18T06:14:22.110Z,9.86
2022-10-18T06:16:50.889Z,10.11
2022-10-18T06:19:19.922Z,10.08
2022-10-18T06:21:48.724Z,10.95
2022-10-18T06:24:18.427Z,11.69
2022-10-18T06:26:47.953Z,12.44
2022-10-18T06:29:17.736Z,12.99
2022-10-18T06:31:48.114Z,13.46
2022-10-18T06:34:17.000Z,13.23
2022-10-18T06:36:45.961Z,12.99
2022-10-18T06:39:14.916Z,11.10
2022-10-18T06:41:43.772Z,10.50
2022-10-18T06:44:32.905Z,10.26
2022-10-18T06:47:03.238Z,11.23
2022-10-18T06:49:32.065Z,10.96
2022-10-18T06:52:00.879Z,11.54
2022-10-18T06:54:29.733Z,11.68
2022-10-18T06:56:58.913Z,12.19
2022-10-18T06:59:31.195Z,12.32
2022-10-18T07:02:00.561Z,13.53
2022-10-18T07:04:31.428Z,13.73
2022-10-18T07:07:00.252Z,14.26
2022-10-18T07:09:29.771Z,14.62
2022-10-18T07:11:58.618Z,13.56
2022-10-18T07:14:29.138Z,12.32
2022-10-18T07:17:00.312Z,13.25
2022-10-18T07:19:30.555Z,11.87
2022-10-18T07:21:59.389Z,12.52
2022-10-18T07:24:28.258Z,12.87
2022-10-18T07:26:57.115Z,12.86
2022-10-18T07:29:25.942Z,13.43
2022-10-18T07:31:54.808Z,12.72
2022-10-18T07:34:23.637Z,12.49
2022-10-18T07:36:53.903Z,13.17
2022-10-18T07:39:23.046Z,13.46
2022-10-18T07:41:51.884Z,14.39
2022-10-18T07:44:20.758Z,13.72
2022-10-18T07:46:49.564Z,15.50
2022-10-18T07:49:18.380Z,16.75
2022-10-18T07:51:47.228Z,17.44
2022-10-18T07:54:17.633Z,18.62
2022-10-18T07:56:47.203Z,18.63
2022-10-18T07:59:16.026Z,17.87
2022-10-18T08:01:44.867Z,18.08
2022-10-18T08:04:16.374Z,19.14
2022-10-18T08:06:45.493Z,18.71
2022-10-18T08:09:14.522Z,17.87
2022-10-18T08:11:44.761Z,18.32
2022-10-18T08:14:13.612Z,17.62
2022-10-18T08:16:42.444Z,18.05
2022-10-18T08:19:11.292Z,16.72
2022-10-18T08:21:40.120Z,16.82
2022-10-18T08:24:08.965Z,16.65
2022-10-18T08:26:37.952Z,16.73
2022-10-18T08:29:22.549Z,16.54
2022-10-18T08:31:52.905Z,17.29
2022-10-18T08:34:21.801Z,16.79
2022-10-18T08:36:50.637Z,17.04
2022-10-18T08:39:19.482Z,17.54
2022-10-18T08:42:13.633Z,17.60
2022-10-18T08:44:46.752Z,17.88
2022-10-18T08:47:18.777Z,17.92
2022-10-18T08:49:51.582Z,17.60
2022-10-18T08:52:29.554Z,18.41
2022-10-18T08:55:03.956Z,18.16
2022-10-18T08:57:33.967Z,18.86
2022-10-18T09:00:15.937Z,18.72
2022-10-18T09:02:57.806Z,18.58
2022-10-18T09:05:33.986Z,18.77
2022-10-18T09:08:33.359Z,19.46
2022-10-18T09:11:12.103Z,19.42
2022-10-18T09:14:17.516Z,19.57
2022-10-18T09:16:58.198Z,19.92
2022-10-18T09:19:42.886Z,19.96
2022-10-18T09:22:15.206Z,19.90
2022-10-18T09:24:51.040Z,19.06
2022-10-18T09:27:21.789Z,20.00
2022-10-18T09:30:03.764Z,20.39
2022-10-18T09:32:46.209Z,21.14
2022-10-18T09:35:19.038Z,21.10
2022-10-18T09:37:50.207Z,21.57
2022-10-18T09:40:24.200Z,20.83
2022-10-18T09:42:58.005Z,20.99
2022-10-18T09:45:31.998Z,22.48
2022-10-18T09:48:09.758Z,22.41
2022-10-18T09:50:42.878Z,22.54
2022-10-18T09:53:21.365Z,21.52
2022-10-18T09:56:00.191Z,20.57
2022-10-18T09:58:40.310Z,21.38
2022-10-18T10:01:10.789Z,22.06
2022-10-18T10:03:41.521Z,21.48
2022-10-18T10:06:26.348Z,21.84
2022-10-18T10:08:59.692Z,22.11
2022-10-18T10:11:37.949Z,21.30
2022-10-18T10:14:14.364Z,21.11
2022-10-18T10:16:52.440Z,20.79
2022-10-18T10:19:27.522Z,20.51
2022-10-18T10:22:00.565Z,21.15
2022-10-18T10:24:44.305Z,21.39
2022-10-18T10:27:21.175Z,21.83
2022-10-18T10:30:01.485Z,22.03
2022-10-18T10:32:47.007Z,22.51
2022-10-18T10:35:42.314Z,23.38
2022-10-18T10:38:26.042Z,22.43
2022-10-18T10:40:55.748Z,21.41
2022-10-18T10:43:42.643Z,24.07
2022-10-18T10:46:14.208Z,23.34
2022-10-18T10:49:04.146Z,24.30
2022-10-18T10:51:43.783Z,23.11
2022-10-18T10:54:17.299Z,23.03
2022-10-18T10:56:57.900Z,24.36
2022-10-18T10:59:29.222Z,24.75
2022-10-18T11:02:21.792Z,24.84
2022-10-18T11:04:52.472Z,25.66
2022-10-18T11:07:27.482Z,27.33
2022-10-18T11:10:03.400Z,27.95
2022-10-18T11:12:35.461Z,28.08
2022-10-18T11:15:20.309Z,25.96
2022-10-18T11:18:02.043Z,25.11
2022-10-18T11:20:34.123Z,25.30
2022-10-18T11:23:08.877Z,24.31
2022-10-18T11:26:04.324Z,23.82
2022-10-18T11:28:51.695Z,25.48
2022-10-18T11:31:26.215Z,27.49
2022-10-18T11:34:11.884Z,28.00
2022-10-18T11:37:02.279Z,25.59
2022-10-18T11:39:51.183Z,24.56
2022-10-18T11:42:28.895Z,24.14
2022-10-18T11:45:12.449Z,22.96
2022-10-18T11:47:53.560Z,25.22
2022-10-18T11:50:33.018Z,26.46
2022-10-18T11:53:13.303Z,25.64
2022-10-18T11:55:56.826Z,24.90
2022-10-18T11:58:38.731Z,25.15
2022-10-18T12:01:17.737Z,25.47
2022-10-18T12:03:55.875Z,25.68
2022-10-18T12:06:30.746Z,27.11
2022-10-18T12:09:03.268Z,27.75
2022-10-18T12:11:45.308Z,25.81
2022-10-18T12:14:24.284Z,25.93
2022-10-18T12:17:19.013Z,24.79
2022-10-18T12:19:47.631Z,25.12
2022-10-18T12:22:22.446Z,24.98
2022-10-18T12:24:51.474Z,25.96
2022-10-18T12:27:28.821Z,25.50
2022-10-18T12:30:03.784Z,23.31
2022-10-18T12:32:36.093Z,23.37
2022-10-18T12:35:10.691Z,25.27
2022-10-18T12:37:53.079Z,24.94
2022-10-18T12:40:24.827Z,25.39
2022-10-18T12:42:55.429Z,25.86
2022-10-18T12:45:32.395Z,27.06
2022-10-18T12:48:03.317Z,26.80
2022-10-18T12:50:36.100Z,26.02
2022-10-18T12:53:18.104Z,26.38
2022-10-18T12:55:51.476Z,26.47
2022-10-18T12:58:32.673Z,26.34
2022-10-18T13:01:04.822Z,25.03
2022-10-18T13:03:54.108Z,25.91
2022-10-18T13:06:24.233Z,26.42
2022-10-18T13:09:19.684Z,27.20
2022-10-18T13:11:48.941Z,24.66
2022-10-18T13:15:12.701Z,24.62
2022-10-18T13:17:53.646Z,25.98
2022-10-18T13:20:29.104Z,27.07
2022-10-18T13:23:08.483Z,24.85
2022-10-18T13:25:50.782Z,25.20
2022-10-18T13:28:29.081Z,25.20
2022-10-18T13:31:03.912Z,25.90
2022-10-18T13:33:35.345Z,25.05
2022-10-18T13:36:07.926Z,24.43
2022-10-18T13:38:48.442Z,23.57
2022-10-18T13:41:20.429Z,24.11
2022-10-18T13:44:00.251Z,24.45
2022-10-18T13:47:03.346Z,24.91
2022-10-18T13:49:45.651Z,25.36
2022-10-18T13:52:23.063Z,25.71
2022-10-18T13:55:10.568Z,25.20
2022-10-18T13:57:52.310Z,24.74
2022-10-18T14:00:36.462Z,24.80
2022-10-18T14:03:55.059Z,24.00
2022-10-18T14:06:20.130Z,24.09
2022-10-18T14:08:55.105Z,23.74
2022-10-18T14:11:33.552Z,23.09
2022-10-18T14:14:14.116Z,23.83
2022-10-18T14:16:48.985Z,23.85
2022-10-18T14:19:24.396Z,24.72
2022-10-18T14:22:02.034Z,23.70
2022-10-18T14:24:32.067Z,24.67
2022-10-18T14:27:17.611Z,24.19
2022-10-18T14:29:46.958Z,23.30
2022-10-18T14:32:33.762Z,23.43
2022-10-18T14:35:30.996Z,23.41
2022-10-18T14:37:56.061Z,22.79
2022-10-18T14:40:35.204Z,22.69
2022-10-18T14:43:06.403Z,22.74
2022-10-18T14:45:35.243Z,22.53
2022-10-18T14:48:09.016Z,21.85
2022-10-18T14:50:38.127Z,22.38
2022-10-18T14:53:10.749Z,22.12
2022-10-18T14:55:43.214Z,21.73
2022-10-18T14:58:17.519Z,21.73
2022-10-18T15:00:48.693Z,21.47
2022-10-18T15:03:19.298Z,21.12
2022-10-18T15:05:57.922Z,21.22
2022-10-18T15:08:36.068Z,21.06
2022-10-18T15:11:08.293Z,21.01
2022-10-18T15:13:48.532Z,20.73
2022-10-18T15:16:19.369Z,20.43
2022-10-18T15:19:02.321Z,20.44
2022-10-18T15:21:31.607Z,20.34
2022-10-18T15:24:33.081Z,20.38
2022-10-18T15:27:11.691Z,20.22
2022-10-18T15:29:43.430Z,20.24
2022-10-18T15:32:21.169Z,20.33
2022-10-18T15:34:50.284Z,20.31
2022-10-18T15:37:31.458Z,20.22
2022-10-18T15:40:39.096Z,19.89
2022-10-18T15:43:36.320Z,19.58
2022-10-18T15:46:07.415Z,19.48
2022-10-18T15:48:39.351Z,19.46
2022-10-18T15:51:10.159Z,19.14
2022-10-18T15:53:51.324Z,19.25
2022-10-18T15:56:33.796Z,18.83
2022-10-18T15:59:06.038Z,18.51
2022-10-18T16:01:39.157Z,18.51
2022-10-18T16:04:15.075Z,18.18
2022-10-18T16:06:44.071Z,18.24
2022-10-18T16:09:16.579Z,18.15
2022-10-18T16:11:47.530Z,18.39
2022-10-18T16:14:16.431Z,18.37
2022-10-18T16:16:46.320Z,17.55
2022-10-18T16:19:18.660Z,17.58
2022-10-18T16:21:47.490Z,17.58
2022-10-18T16:24:16.473Z,17.19
2022-10-18T16:26:59.418Z,17.08
2022-10-18T16:29:32.026Z,16.35
2022-10-18T16:32:02.105Z,17.03
2022-10-18T16:34:32.203Z,17.09
2022-10-18T16:37:02.341Z,17.18
2022-10-18T16:39:34.903Z,16.84
2022-10-18T16:42:05.100Z,16.95
2022-10-18T16:44:34.002Z,16.74
2022-10-18T16:47:03.080Z,16.64
2022-10-18T16:49:31.913Z,16.63
2022-10-18T16:52:00.790Z,16.25
2022-10-18T16:54:29.833Z,16.53
2022-10-18T16:56:58.658Z,16.48
2022-10-18T16:59:30.785Z,16.18
2022-10-18T17:02:02.085Z,16.23
2022-10-18T17:04:30.952Z,16.31
2022-10-18T17:06:59.953Z,16.36
2022-10-18T17:09:29.531Z,16.28
2022-10-18T17:11:58.377Z,16.06
2022-10-18T17:14:28.689Z,15.99
2022-10-18T17:16:57.611Z,15.78
2022-10-18T17:19:26.465Z,15.73
2022-10-18T17:21:58.882Z,15.54
2022-10-18T17:24:30.546Z,15.25
2022-10-18T17:26:59.528Z,15.26
2022-10-18T17:29:29.816Z,15.43
2022-10-18T17:31:58.677Z,15.24
2022-10-18T17:34:27.764Z,15.22
2022-10-18T17:36:57.042Z,15.04
2022-10-18T17:39:26.056Z,14.87
2022-10-18T17:41:55.527Z,14.73
2022-10-18T17:44:24.812Z,14.54
2022-10-18T17:46:55.191Z,14.48
2022-10-18T17:49:24.321Z,14.45
2022-10-18T17:51:53.142Z,14.44
2022-10-18T17:54:22.020Z,14.38
2022-10-18T17:56:53.805Z,14.15
2022-10-18T17:59:23.459Z,14.15
2022-10-18T18:01:52.580Z,14.27
2022-10-18T18:04:23.822Z,14.20
2022-10-18T18:06:53.064Z,13.86
2022-10-18T18:09:22.158Z,13.87
2022-10-18T18:11:51.991Z,14.09
2022-10-18T18:14:21.717Z,13.95
2022-10-18T18:16:50.541Z,13.81
2022-10-18T18:19:20.095Z,13.77
2022-10-18T18:21:53.673Z,13.88
2022-10-18T18:24:24.847Z,13.63
2022-10-18T18:26:54.758Z,12.95
2022-10-18T18:29:25.146Z,13.41
2022-10-18T18:31:54.716Z,13.69
2022-10-18T18:34:23.758Z,13.60
2022-10-18T18:36:56.054Z,13.73
2022-10-18T18:39:29.558Z,13.63
2022-10-18T18:41:58.544Z,13.55
2022-10-18T18:44:27.598Z,13.34
2022-10-18T18:46:58.289Z,13.45
2022-10-18T18:49:28.194Z,13.25
2022-10-18T18:51:58.514Z,12.75
2022-10-18T18:54:28.760Z,12.90
2022-10-18T18:56:57.961Z,12.69
2022-10-18T18:59:26.897Z,12.59
2022-10-18T19:01:55.775Z,12.55
2022-10-18T19:04:24.652Z,12.40
2022-10-18T19:06:53.507Z,12.48
2022-10-18T19:09:23.997Z,12.68
2022-10-18T19:11:54.907Z,12.88
2022-10-18T19:14:25.768Z,12.66
2022-10-18T19:16:57.551Z,12.54
2022-10-18T19:19:28.039Z,12.45
2022-10-18T19:21:58.648Z,12.34
2022-10-18T19:24:31.119Z,12.18
2022-10-18T19:27:02.022Z,12.22
2022-10-18T19:29:32.497Z,12.23
2022-10-18T19:32:03.985Z,12.14
2022-10-18T19:34:34.409Z,11.52
2022-10-18T19:37:03.861Z,12.06
2022-10-18T19:39:35.719Z,11.93
2022-10-18T19:42:07.709Z,11.94
2022-10-18T19:44:37.784Z,11.80
2022-10-18T19:47:08.177Z,11.69
2022-10-18T19:49:37.159Z,11.73
2022-10-18T19:52:06.096Z,11.53
2022-10-18T19:54:36.326Z,11.56
2022-10-18T19:57:05.344Z,11.83
2022-10-18T19:59:35.463Z,11.69
2022-10-18T20:02:04.857Z,11.64
2022-10-18T20:04:35.128Z,11.42
2022-10-18T20:07:04.035Z,11.62
2022-10-18T20:09:32.905Z,11.41
2022-10-18T20:12:03.349Z,11.45
2022-10-18T20:14:32.215Z,11.39
2022-10-18T20:17:02.051Z,11.11
2022-10-18T20:19:30.914Z,10.78
2022-10-18T20:21:59.883Z,10.51
2022-10-18T20:24:29.673Z,10.52
2022-10-18T20:26:58.606Z,10.63
2022-10-18T20:29:30.211Z,10.56
2022-10-18T20:31:59.571Z,10.54
2022-10-18T20:34:28.883Z,10.57
2022-10-18T20:36:57.752Z,10.34
2022-10-18T20:39:26.730Z,10.60
2022-10-18T20:41:55.565Z,10.59
2022-10-18T20:44:26.695Z,10.67
2022-10-18T20:46:56.948Z,10.62
2022-10-18T20:49:26.089Z,10.70
2022-10-18T20:51:54.925Z,10.50
2022-10-18T20:54:23.927Z,10.60
2022-10-18T20:56:52.791Z,10.80
2022-10-18T20:59:21.651Z,10.77
2022-10-18T21:01:50.556Z,10.34
2022-10-18T21:04:20.780Z,10.10
2022-10-18T21:06:49.663Z,10.09
2022-10-18T21:09:19.993Z,10.23
2022-10-18T21:11:51.398Z,10.40
2022-10-18T21:14:22.066Z,10.45
2022-10-18T21:16:52.315Z,10.33
2022-10-18T21:19:24.353Z,10.37
2022-10-18T21:21:55.297Z,10.48
2022-10-18T21:24:25.451Z,10.53
2022-10-18T21:26:54.596Z,10.42
2022-10-18T21:29:24.698Z,10.37
2022-10-18T21:31:55.553Z,10.21
2022-10-18T21:34:25.749Z,10.28
2022-10-18T21:36:54.684Z,10.74
2022-10-18T21:41:58.741Z,10.38
2022-10-18T21:44:27.865Z,10.15
2022-10-18T21:46:57.033Z,9.94
2022-10-18T21:49:29.205Z,9.82
2022-10-18T21:51:58.334Z,9.65
2022-10-18T21:54:27.164Z,9.71
2022-10-18T21:56:55.957Z,9.84
2022-10-18T21:59:24.840Z,10.20
2022-10-18T22:01:53.690Z,10.21
2022-10-18T22:04:24.640Z,9.98
2022-10-18T22:06:54.970Z,9.82
2022-10-18T22:09:23.826Z,9.89
2022-10-18T22:11:54.809Z,9.59
2022-10-18T22:14:24.152Z,9.55
2022-10-18T22:16:53.032Z,9.51
2022-10-18T22:19:21.844Z,9.49
2022-10-18T22:21:50.913Z,9.55
2022-10-18T22:24:21.147Z,9.51
2022-10-18T22:26:51.124Z,9.55
2022-10-18T22:29:21.741Z,9.71
2022-10-18T22:31:53.219Z,9.56
2022-10-18T22:34:24.077Z,9.37
2022-10-18T22:36:52.932Z,9.13
2022-10-18T22:39:24.646Z,9.57
2022-10-18T22:41:56.352Z,9.52
2022-10-18T22:44:25.273Z,9.38
2022-10-18T22:46:54.069Z,9.16
2022-10-18T22:49:22.901Z,9.10
2022-10-18T22:51:51.694Z,9.07
2022-10-18T22:54:20.841Z,8.78
2022-10-18T22:56:51.342Z,8.81
2022-10-18T22:59:20.565Z,8.98
2022-10-18T23:01:49.410Z,8.99
2022-10-18T23:04:18.200Z,8.92
2022-10-18T23:06:47.035Z,8.90
2022-10-18T23:09:15.848Z,8.98
2022-10-18T23:11:44.685Z,9.13
2022-10-18T23:14:14.897Z,8.98
2022-10-18T23:16:44.709Z,9.24
2022-10-18T23:19:16.945Z,9.11
2022-10-18T23:21:45.789Z,9.11
2022-10-18T23:24:14.771Z,8.84
2022-10-18T23:26:43.650Z,8.70
2022-10-18T23:29:12.482Z,8.77
2022-10-18T23:31:42.716Z,8.69
2022-10-18T23:34:11.731Z,8.64
2022-10-18T23:36:40.602Z,8.48
2022-10-18T23:39:09.437Z,8.48
2022-10-18T23:41:38.255Z,8.28
2022-10-18T23:44:09.088Z,7.87
2022-10-18T23:46:37.969Z,7.95
2022-10-18T23:49:08.196Z,8.01
2022-10-18T23:51:37.031Z,8.08
2022-10-18T23:54:05.901Z,8.25
2022-10-18T23:56:34.700Z,8.44
2022-10-18T23:59:04.186Z,8.39
